sensor_id;sensor_type;location;lat;lon;timestamp;P1;durP1;ratioP1;P2;durP2;ratioP2
24137;SDS011;17947;50.672;6.076;2022-07-23T00:02:25;7.28;;;6.38;;
24137;SDS011;17947;50.672;6.076;2022-07-23T00:04:51;7.78;;;6.05;;
24137;SDS011;17947;50.672;6.076;2022-07-23T00:07:17;8.80;;;6.28;;
24137;SDS011;17947;50.672;6.076;2022-07-23T00:09:43;8.45;;;5.65;;
24137;SDS011;17947;50.672;6.076;2022-07-23T00:12:09;8.93;;;6.22;;
24137;SDS011;17947;50.672;6.076;2022-07-23T00:14:35;9.32;;;6.10;;
24137;SDS011;17947;50.672;6.076;2022-07-23T00:17:01;8.48;;;6.40;;
24137;SDS011;17947;50.672;6.076;2022-07-23T00:19:27;9.43;;;7.22;;
24137;SDS011;17947;50.672;6.076;2022-07-23T00:21:54;8.32;;;6.43;;
24137;SDS011;17947;50.672;6.076;2022-07-23T00:24:20;7.18;;;5.72;;
24137;SDS011;17947;50.672;6.076;2022-07-23T00:26:46;8.75;;;6.28;;
24137;SDS011;17947;50.672;6.076;2022-07-23T00:29:12;8.27;;;6.05;;
24137;SDS011;17947;50.672;6.076;2022-07-23T00:31:38;8.40;;;6.32;;
24137;SDS011;17947;50.672;6.076;2022-07-23T00:34:04;9.85;;;6.50;;
24137;SDS011;17947;50.672;6.076;2022-07-23T00:36:30;8.88;;;6.90;;
24137;SDS011;17947;50.672;6.076;2022-07-23T00:38:56;8.18;;;6.30;;
24137;SDS011;17947;50.672;6.076;2022-07-23T00:41:23;10.40;;;7.10;;
24137;SDS011;17947;50.672;6.076;2022-07-23T00:43:49;10.90;;;7.43;;
24137;SDS011;17947;50.672;6.076;2022-07-23T00:46:21;9.98;;;7.40;;
24137;SDS011;17947;50.672;6.076;2022-07-23T00:48:48;9.73;;;7.18;;
24137;SDS011;17947;50.672;6.076;2022-07-23T00:51:17;9.52;;;6.90;;
24137;SDS011;17947;50.672;6.076;2022-07-23T00:53:44;9.80;;;7.32;;
24137;SDS011;17947;50.672;6.076;2022-07-23T00:56:10;9.75;;;6.95;;
24137;SDS011;17947;50.672;6.076;2022-07-23T00:58:36;9.80;;;7.07;;
24137;SDS011;17947;50.672;6.076;2022-07-23T01:01:04;9.45;;;7.38;;
24137;SDS011;17947;50.672;6.076;2022-07-23T01:03:30;11.07;;;7.10;;
24137;SDS011;17947;50.672;6.076;2022-07-23T01:05:57;10.20;;;7.65;;
24137;SDS011;17947;50.672;6.076;2022-07-23T01:08:23;10.40;;;7.47;;
24137;SDS011;17947;50.672;6.076;2022-07-23T01:10:49;9.43;;;7.28;;
24137;SDS011;17947;50.672;6.076;2022-07-23T01:13:16;10.85;;;7.70;;
24137;SDS011;17947;50.672;6.076;2022-07-23T01:15:42;11.20;;;7.93;;
24137;SDS011;17947;50.672;6.076;2022-07-23T01:18:08;9.43;;;7.45;;
24137;SDS011;17947;50.672;6.076;2022-07-23T01:20:35;9.85;;;7.10;;
24137;SDS011;17947;50.672;6.076;2022-07-23T01:23:02;9.02;;;7.22;;
24137;SDS011;17947;50.672;6.076;2022-07-23T01:25:28;9.20;;;7.32;;
24137;SDS011;17947;50.672;6.076;2022-07-23T01:27:54;10.85;;;7.35;;
24137;SDS011;17947;50.672;6.076;2022-07-23T01:30:20;10.60;;;7.63;;
24137;SDS011;17947;50.672;6.076;2022-07-23T01:32:46;10.80;;;7.60;;
24137;SDS011;17947;50.672;6.076;2022-07-23T01:35:12;10.85;;;7.82;;
24137;SDS011;17947;50.672;6.076;2022-07-23T01:37:38;11.05;;;8.32;;
24137;SDS011;17947;50.672;6.076;2022-07-23T01:40:05;11.05;;;7.63;;
24137;SDS011;17947;50.672;6.076;2022-07-23T01:42:31;9.93;;;8.15;;
24137;SDS011;17947;50.672;6.076;2022-07-23T01:44:57;12.40;;;8.10;;
24137;SDS011;17947;50.672;6.076;2022-07-23T01:47:23;10.20;;;7.70;;
24137;SDS011;17947;50.672;6.076;2022-07-23T01:49:49;11.02;;;8.00;;
24137;SDS011;17947;50.672;6.076;2022-07-23T01:52:15;11.02;;;8.02;;
24137;SDS011;17947;50.672;6.076;2022-07-23T01:54:41;11.88;;;8.43;;
24137;SDS011;17947;50.672;6.076;2022-07-23T01:57:08;12.10;;;8.82;;
24137;SDS011;17947;50.672;6.076;2022-07-23T01:59:34;11.05;;;8.73;;
24137;SDS011;17947;50.672;6.076;2022-07-23T02:02:01;13.68;;;8.55;;
24137;SDS011;17947;50.672;6.076;2022-07-23T02:04:28;10.80;;;8.40;;
24137;SDS011;17947;50.672;6.076;2022-07-23T02:06:54;12.60;;;8.35;;
24137;SDS011;17947;50.672;6.076;2022-07-23T02:09:21;11.10;;;8.50;;
24137;SDS011;17947;50.672;6.076;2022-07-23T02:11:47;12.15;;;9.07;;
24137;SDS011;17947;50.672;6.076;2022-07-23T02:14:13;11.25;;;8.65;;
24137;SDS011;17947;50.672;6.076;2022-07-23T02:16:40;13.38;;;9.20;;
24137;SDS011;17947;50.672;6.076;2022-07-23T02:19:06;12.63;;;9.43;;
24137;SDS011;17947;50.672;6.076;2022-07-23T02:21:32;11.63;;;8.55;;
24137;SDS011;17947;50.672;6.076;2022-07-23T02:23:58;11.43;;;8.50;;
24137;SDS011;17947;50.672;6.076;2022-07-23T02:26:24;12.45;;;9.20;;
24137;SDS011;17947;50.672;6.076;2022-07-23T02:28:50;10.70;;;8.63;;
24137;SDS011;17947;50.672;6.076;2022-07-23T02:31:18;11.57;;;8.32;;
24137;SDS011;17947;50.672;6.076;2022-07-23T02:33:44;12.27;;;8.60;;
24137;SDS011;17947;50.672;6.076;2022-07-23T02:36:10;11.73;;;8.85;;
24137;SDS011;17947;50.672;6.076;2022-07-23T02:38:36;10.82;;;8.48;;
24137;SDS011;17947;50.672;6.076;2022-07-23T02:41:02;12.77;;;8.75;;
24137;SDS011;17947;50.672;6.076;2022-07-23T02:43:29;10.93;;;8.10;;
24137;SDS011;17947;50.672;6.076;2022-07-23T02:45:55;13.43;;;8.95;;
24137;SDS011;17947;50.672;6.076;2022-07-23T02:48:21;12.13;;;9.10;;
24137;SDS011;17947;50.672;6.076;2022-07-23T02:50:47;12.07;;;8.68;;
24137;SDS011;17947;50.672;6.076;2022-07-23T02:53:13;10.90;;;8.63;;
24137;SDS011;17947;50.672;6.076;2022-07-23T02:55:39;12.82;;;8.95;;
24137;SDS011;17947;50.672;6.076;2022-07-23T02:58:05;11.70;;;8.73;;
24137;SDS011;17947;50.672;6.076;2022-07-23T03:00:31;11.80;;;8.32;;
24137;SDS011;17947;50.672;6.076;2022-07-23T03:02:58;13.55;;;9.02;;
24137;SDS011;17947;50.672;6.076;2022-07-23T03:05:24;12.60;;;9.07;;
24137;SDS011;17947;50.672;6.076;2022-07-23T03:07:50;12.20;;;8.73;;
24137;SDS011;17947;50.672;6.076;2022-07-23T03:10:16;12.18;;;9.07;;
24137;SDS011;17947;50.672;6.076;2022-07-23T03:12:42;11.93;;;8.73;;
24137;SDS011;17947;50.672;6.076;2022-07-23T03:15:09;11.20;;;8.30;;
24137;SDS011;17947;50.672;6.076;2022-07-23T03:17:35;12.27;;;8.90;;
24137;SDS011;17947;50.672;6.076;2022-07-23T03:20:01;12.07;;;9.25;;
24137;SDS011;17947;50.672;6.076;2022-07-23T03:22:27;12.23;;;9.18;;
24137;SDS011;17947;50.672;6.076;2022-07-23T03:24:53;13.98;;;9.88;;
24137;SDS011;17947;50.672;6.076;2022-07-23T03:27:20;11.88;;;8.77;;
24137;SDS011;17947;50.672;6.076;2022-07-23T03:29:46;12.80;;;9.18;;
24137;SDS011;17947;50.672;6.076;2022-07-23T03:32:13;11.57;;;8.95;;
24137;SDS011;17947;50.672;6.076;2022-07-23T03:34:41;12.13;;;9.00;;
24137;SDS011;17947;50.672;6.076;2022-07-23T03:37:07;10.38;;;8.30;;
24137;SDS011;17947;50.672;6.076;2022-07-23T03:39:33;13.25;;;8.63;;
24137;SDS011;17947;50.672;6.076;2022-07-23T03:41:59;10.88;;;8.32;;
24137;SDS011;17947;50.672;6.076;2022-07-23T03:44:25;13.23;;;8.80;;
24137;SDS011;17947;50.672;6.076;2022-07-23T03:46:51;12.48;;;8.60;;
24137;SDS011;17947;50.672;6.076;2022-07-23T03:49:17;12.05;;;8.38;;
24137;SDS011;17947;50.672;6.076;2022-07-23T03:51:43;11.43;;;8.55;;
24137;SDS011;17947;50.672;6.076;2022-07-23T03:54:09;12.32;;;9.07;;
24137;SDS011;17947;50.672;6.076;2022-07-23T03:56:36;12.23;;;8.85;;
24137;SDS011;17947;50.672;6.076;2022-07-23T03:59:02;12.35;;;8.77;;
24137;SDS011;17947;50.672;6.076;2022-07-23T04:01:28;11.95;;;8.95;;
24137;SDS011;17947;50.672;6.076;2022-07-23T04:03:54;10.82;;;8.57;;
24137;SDS011;17947;50.672;6.076;2022-07-23T04:06:20;14.68;;;10.00;;
24137;SDS011;17947;50.672;6.076;2022-07-23T04:08:46;14.45;;;9.65;;
24137;SDS011;17947;50.672;6.076;2022-07-23T04:11:12;14.57;;;9.88;;
24137;SDS011;17947;50.672;6.076;2022-07-23T04:13:39;14.60;;;9.88;;
24137;SDS011;17947;50.672;6.076;2022-07-23T04:16:05;15.65;;;10.05;;
24137;SDS011;17947;50.672;6.076;2022-07-23T04:18:31;15.60;;;9.88;;
24137;SDS011;17947;50.672;6.076;2022-07-23T04:20:58;14.75;;;10.10;;
24137;SDS011;17947;50.672;6.076;2022-07-23T04:23:24;15.20;;;9.18;;
24137;SDS011;17947;50.672;6.076;2022-07-23T04:25:50;15.07;;;9.88;;
24137;SDS011;17947;50.672;6.076;2022-07-23T04:28:16;13.65;;;8.77;;
24137;SDS011;17947;50.672;6.076;2022-07-23T04:30:42;11.15;;;8.43;;
24137;SDS011;17947;50.672;6.076;2022-07-23T04:33:08;11.93;;;8.80;;
24137;SDS011;17947;50.672;6.076;2022-07-23T04:35:34;12.30;;;8.85;;
24137;SDS011;17947;50.672;6.076;2022-07-23T04:38:00;12.80;;;8.93;;
24137;SDS011;17947;50.672;6.076;2022-07-23T04:40:27;11.65;;;8.60;;
24137;SDS011;17947;50.672;6.076;2022-07-23T04:42:53;12.35;;;8.68;;
24137;SDS011;17947;50.672;6.076;2022-07-23T04:45:19;11.60;;;8.82;;
24137;SDS011;17947;50.672;6.076;2022-07-23T04:47:45;13.20;;;9.00;;
24137;SDS011;17947;50.672;6.076;2022-07-23T04:50:11;12.02;;;9.18;;
24137;SDS011;17947;50.672;6.076;2022-07-23T04:52:38;12.18;;;8.55;;
24137;SDS011;17947;50.672;6.076;2022-07-23T04:55:04;12.50;;;9.18;;
24137;SDS011;17947;50.672;6.076;2022-07-23T04:57:30;13.27;;;8.55;;
24137;SDS011;17947;50.672;6.076;2022-07-23T04:59:56;10.55;;;7.95;;
24137;SDS011;17947;50.672;6.076;2022-07-23T05:02:22;11.30;;;8.70;;
24137;SDS011;17947;50.672;6.076;2022-07-23T05:04:48;12.30;;;8.90;;
24137;SDS011;17947;50.672;6.076;2022-07-23T05:07:14;13.63;;;8.93;;
24137;SDS011;17947;50.672;6.076;2022-07-23T05:09:40;12.55;;;9.18;;
24137;SDS011;17947;50.672;6.076;2022-07-23T05:12:06;12.52;;;8.90;;
24137;SDS011;17947;50.672;6.076;2022-07-23T05:14:32;12.02;;;8.90;;
24137;SDS011;17947;50.672;6.076;2022-07-23T05:16:59;10.60;;;8.20;;
24137;SDS011;17947;50.672;6.076;2022-07-23T05:19:25;10.85;;;7.68;;
24137;SDS011;17947;50.672;6.076;2022-07-23T05:21:51;11.00;;;7.90;;
24137;SDS011;17947;50.672;6.076;2022-07-23T05:24:17;10.57;;;8.15;;
24137;SDS011;17947;50.672;6.076;2022-07-23T05:26:43;10.88;;;8.00;;
24137;SDS011;17947;50.672;6.076;2022-07-23T05:29:09;10.05;;;8.25;;
24137;SDS011;17947;50.672;6.076;2022-07-23T05:31:35;10.05;;;8.00;;
24137;SDS011;17947;50.672;6.076;2022-07-23T05:34:01;9.63;;;7.70;;
24137;SDS011;17947;50.672;6.076;2022-07-23T05:36:27;9.57;;;7.65;;
24137;SDS011;17947;50.672;6.076;2022-07-23T05:38:53;10.23;;;7.82;;
24137;SDS011;17947;50.672;6.076;2022-07-23T05:41:19;10.70;;;8.27;;
24137;SDS011;17947;50.672;6.076;2022-07-23T05:43:45;8.82;;;7.72;;
24137;SDS011;17947;50.672;6.076;2022-07-23T05:46:11;10.40;;;7.72;;
24137;SDS011;17947;50.672;6.076;2022-07-23T05:48:38;8.95;;;7.63;;
24137;SDS011;17947;50.672;6.076;2022-07-23T05:51:04;10.25;;;7.57;;
24137;SDS011;17947;50.672;6.076;2022-07-23T05:53:31;9.82;;;8.02;;
24137;SDS011;17947;50.672;6.076;2022-07-23T05:55:57;10.63;;;8.23;;
24137;SDS011;17947;50.672;6.076;2022-07-23T05:58:23;11.18;;;8.32;;
24137;SDS011;17947;50.672;6.076;2022-07-23T06:00:49;9.75;;;8.20;;
24137;SDS011;17947;50.672;6.076;2022-07-23T06:03:15;11.05;;;8.52;;
24137;SDS011;17947;50.672;6.076;2022-07-23T06:05:41;11.93;;;8.50;;
24137;SDS011;17947;50.672;6.076;2022-07-23T06:08:07;12.90;;;8.50;;
24137;SDS011;17947;50.672;6.076;2022-07-23T06:10:33;10.88;;;7.90;;
24137;SDS011;17947;50.672;6.076;2022-07-23T06:13:00;11.00;;;8.45;;
24137;SDS011;17947;50.672;6.076;2022-07-23T06:15:26;11.40;;;8.93;;
24137;SDS011;17947;50.672;6.076;2022-07-23T06:17:52;9.73;;;8.20;;
24137;SDS011;17947;50.672;6.076;2022-07-23T06:20:18;13.45;;;9.23;;
24137;SDS011;17947;50.672;6.076;2022-07-23T06:22:44;11.50;;;9.07;;
24137;SDS011;17947;50.672;6.076;2022-07-23T06:25:10;11.95;;;9.05;;
24137;SDS011;17947;50.672;6.076;2022-07-23T06:27:36;11.35;;;8.73;;
24137;SDS011;17947;50.672;6.076;2022-07-23T06:30:02;12.07;;;9.13;;
24137;SDS011;17947;50.672;6.076;2022-07-23T06:32:31;11.80;;;9.07;;
24137;SDS011;17947;50.672;6.076;2022-07-23T06:34:57;11.43;;;8.80;;
24137;SDS011;17947;50.672;6.076;2022-07-23T06:37:23;11.40;;;8.85;;
24137;SDS011;17947;50.672;6.076;2022-07-23T06:39:49;13.07;;;9.23;;
24137;SDS011;17947;50.672;6.076;2022-07-23T06:42:15;12.25;;;9.32;;
24137;SDS011;17947;50.672;6.076;2022-07-23T06:44:41;11.98;;;9.00;;
24137;SDS011;17947;50.672;6.076;2022-07-23T06:47:07;11.38;;;8.38;;
24137;SDS011;17947;50.672;6.076;2022-07-23T06:49:35;11.32;;;9.25;;
24137;SDS011;17947;50.672;6.076;2022-07-23T06:52:01;13.15;;;9.38;;
24137;SDS011;17947;50.672;6.076;2022-07-23T06:54:27;13.27;;;9.60;;
24137;SDS011;17947;50.672;6.076;2022-07-23T06:56:53;14.02;;;8.80;;
24137;SDS011;17947;50.672;6.076;2022-07-23T06:59:19;12.25;;;10.60;;
24137;SDS011;17947;50.672;6.076;2022-07-23T07:01:45;12.70;;;9.30;;
24137;SDS011;17947;50.672;6.076;2022-07-23T07:04:11;11.70;;;9.07;;
24137;SDS011;17947;50.672;6.076;2022-07-23T07:06:37;11.40;;;9.05;;
24137;SDS011;17947;50.672;6.076;2022-07-23T07:09:03;11.32;;;9.05;;
24137;SDS011;17947;50.672;6.076;2022-07-23T07:11:30;11.18;;;9.07;;
24137;SDS011;17947;50.672;6.076;2022-07-23T07:13:56;11.25;;;8.43;;
24137;SDS011;17947;50.672;6.076;2022-07-23T07:16:22;13.40;;;9.43;;
24137;SDS011;17947;50.672;6.076;2022-07-23T07:18:48;11.90;;;9.18;;
24137;SDS011;17947;50.672;6.076;2022-07-23T07:21:14;13.05;;;9.80;;
24137;SDS011;17947;50.672;6.076;2022-07-23T07:23:40;13.52;;;9.50;;
24137;SDS011;17947;50.672;6.076;2022-07-23T07:26:06;13.43;;;9.77;;
24137;SDS011;17947;50.672;6.076;2022-07-23T07:28:32;14.52;;;9.50;;
24137;SDS011;17947;50.672;6.076;2022-07-23T07:30:58;12.10;;;9.40;;
24137;SDS011;17947;50.672;6.076;2022-07-23T07:33:24;12.88;;;9.13;;
24137;SDS011;17947;50.672;6.076;2022-07-23T07:35:50;12.70;;;8.93;;
24137;SDS011;17947;50.672;6.076;2022-07-23T07:38:16;11.60;;;8.85;;
24137;SDS011;17947;50.672;6.076;2022-07-23T07:40:42;10.82;;;8.38;;
24137;SDS011;17947;50.672;6.076;2022-07-23T07:43:08;12.80;;;9.00;;
24137;SDS011;17947;50.672;6.076;2022-07-23T07:45:34;11.60;;;8.23;;
24137;SDS011;17947;50.672;6.076;2022-07-23T07:48:00;12.20;;;8.57;;
24137;SDS011;17947;50.672;6.076;2022-07-23T07:50:26;9.40;;;7.90;;
24137;SDS011;17947;50.672;6.076;2022-07-23T07:52:52;10.27;;;7.55;;
24137;SDS011;17947;50.672;6.076;2022-07-23T07:55:18;9.63;;;7.35;;
24137;SDS011;17947;50.672;6.076;2022-07-23T07:57:44;9.57;;;7.55;;
24137;SDS011;17947;50.672;6.076;2022-07-23T08:00:10;10.10;;;6.78;;
24137;SDS011;17947;50.672;6.076;2022-07-23T08:02:40;9.73;;;7.22;;
24137;SDS011;17947;50.672;6.076;2022-07-23T08:05:07;10.20;;;7.20;;
24137;SDS011;17947;50.672;6.076;2022-07-23T08:07:33;10.15;;;7.22;;
24137;SDS011;17947;50.672;6.076;2022-07-23T08:09:59;8.90;;;7.00;;
24137;SDS011;17947;50.672;6.076;2022-07-23T08:12:25;10.68;;;7.07;;
24137;SDS011;17947;50.672;6.076;2022-07-23T08:14:51;8.20;;;6.43;;
24137;SDS011;17947;50.672;6.076;2022-07-23T08:17:17;9.27;;;6.80;;
24137;SDS011;17947;50.672;6.076;2022-07-23T08:19:43;8.07;;;6.25;;
24137;SDS011;17947;50.672;6.076;2022-07-23T08:22:09;9.30;;;6.50;;
24137;SDS011;17947;50.672;6.076;2022-07-23T08:24:35;6.78;;;5.88;;
24137;SDS011;17947;50.672;6.076;2022-07-23T08:27:01;7.43;;;6.10;;
24137;SDS011;17947;50.672;6.076;2022-07-23T08:29:28;7.82;;;5.68;;
24137;SDS011;17947;50.672;6.076;2022-07-23T08:31:54;7.88;;;5.63;;
24137;SDS011;17947;50.672;6.076;2022-07-23T08:34:20;7.55;;;5.97;;
24137;SDS011;17947;50.672;6.076;2022-07-23T08:36:46;7.07;;;5.80;;
24137;SDS011;17947;50.672;6.076;2022-07-23T08:39:12;7.53;;;5.47;;
24137;SDS011;17947;50.672;6.076;2022-07-23T08:41:39;7.07;;;5.55;;
24137;SDS011;17947;50.672;6.076;2022-07-23T08:44:07;8.00;;;5.25;;
24137;SDS011;17947;50.672;6.076;2022-07-23T08:46:34;7.80;;;5.82;;
24137;SDS011;17947;50.672;6.076;2022-07-23T08:49:00;7.82;;;5.90;;
24137;SDS011;17947;50.672;6.076;2022-07-23T08:51:26;6.82;;;5.57;;
24137;SDS011;17947;50.672;6.076;2022-07-23T08:53:53;8.43;;;6.57;;
24137;SDS011;17947;50.672;6.076;2022-07-23T08:56:19;9.27;;;6.88;;
24137;SDS011;17947;50.672;6.076;2022-07-23T08:58:45;7.93;;;6.63;;
24137;SDS011;17947;50.672;6.076;2022-07-23T09:01:11;9.60;;;7.70;;
24137;SDS011;17947;50.672;6.076;2022-07-23T09:03:37;11.02;;;7.78;;
24137;SDS011;17947;50.672;6.076;2022-07-23T09:06:04;10.93;;;7.60;;
24137;SDS011;17947;50.672;6.076;2022-07-23T09:11:03;9.13;;;6.90;;
24137;SDS011;17947;50.672;6.076;2022-07-23T09:13:30;9.32;;;6.72;;
24137;SDS011;17947;50.672;6.076;2022-07-23T09:15:58;8.27;;;6.88;;
24137;SDS011;17947;50.672;6.076;2022-07-23T09:21:12;8.50;;;5.97;;
24137;SDS011;17947;50.672;6.076;2022-07-23T09:26:21;9.93;;;6.70;;
24137;SDS011;17947;50.672;6.076;2022-07-23T09:28:55;8.15;;;6.30;;
24137;SDS011;17947;50.672;6.076;2022-07-23T09:31:21;7.50;;;5.32;;
24137;SDS011;17947;50.672;6.076;2022-07-23T09:33:47;6.78;;;5.80;;
24137;SDS011;17947;50.672;6.076;2022-07-23T09:36:13;7.25;;;5.40;;
24137;SDS011;17947;50.672;6.076;2022-07-23T09:38:47;6.72;;;5.20;;
24137;SDS011;17947;50.672;6.076;2022-07-23T09:41:13;6.30;;;5.18;;
24137;SDS011;17947;50.672;6.076;2022-07-23T09:43:39;6.78;;;5.10;;
24137;SDS011;17947;50.672;6.076;2022-07-23T09:46:25;7.18;;;5.22;;
24137;SDS011;17947;50.672;6.076;2022-07-23T09:48:55;7.70;;;5.13;;
24137;SDS011;17947;50.672;6.076;2022-07-23T09:51:24;5.93;;;5.18;;
24137;SDS011;17947;50.672;6.076;2022-07-23T09:53:59;6.72;;;5.07;;
24137;SDS011;17947;50.672;6.076;2022-07-23T09:56:25;6.35;;;5.28;;
24137;SDS011;17947;50.672;6.076;2022-07-23T09:58:52;5.75;;;4.82;;
24137;SDS011;17947;50.672;6.076;2022-07-23T10:01:38;5.38;;;4.65;;
24137;SDS011;17947;50.672;6.076;2022-07-23T10:04:04;6.55;;;4.88;;
24137;SDS011;17947;50.672;6.076;2022-07-23T10:06:31;5.15;;;4.43;;
24137;SDS011;17947;50.672;6.076;2022-07-23T10:08:58;4.93;;;4.43;;
24137;SDS011;17947;50.672;6.076;2022-07-23T10:11:25;5.80;;;4.65;;
24137;SDS011;17947;50.672;6.076;2022-07-23T10:13:53;5.68;;;4.13;;
24137;SDS011;17947;50.672;6.076;2022-07-23T10:16:28;5.22;;;4.57;;
24137;SDS011;17947;50.672;6.076;2022-07-23T10:18:54;4.40;;;4.00;;
24137;SDS011;17947;50.672;6.076;2022-07-23T10:24:23;5.47;;;4.30;;
24137;SDS011;17947;50.672;6.076;2022-07-23T10:32:00;4.93;;;4.03;;
24137;SDS011;17947;50.672;6.076;2022-07-23T10:37:07;5.40;;;4.63;;
24137;SDS011;17947;50.672;6.076;2022-07-23T10:39:34;4.22;;;3.83;;
24137;SDS011;17947;50.672;6.076;2022-07-23T10:42:13;4.13;;;3.72;;
24137;SDS011;17947;50.672;6.076;2022-07-23T10:44:40;4.20;;;3.80;;
24137;SDS011;17947;50.672;6.076;2022-07-23T10:47:07;4.78;;;3.92;;
24137;SDS011;17947;50.672;6.076;2022-07-23T10:49:52;5.43;;;3.55;;
24137;SDS011;17947;50.672;6.076;2022-07-23T10:52:27;4.63;;;3.75;;
24137;SDS011;17947;50.672;6.076;2022-07-23T10:57:21;4.07;;;3.72;;
24137;SDS011;17947;50.672;6.076;2022-07-23T11:02:47;4.20;;;3.75;;
24137;SDS011;17947;50.672;6.076;2022-07-23T11:05:14;5.82;;;4.95;;
24137;SDS011;17947;50.672;6.076;2022-07-23T11:10:35;4.90;;;4.25;;
24137;SDS011;17947;50.672;6.076;2022-07-23T11:16:11;4.90;;;4.13;;
24137;SDS011;17947;50.672;6.076;2022-07-23T11:24:10;4.30;;;3.90;;
24137;SDS011;17947;50.672;6.076;2022-07-23T11:34:31;3.90;;;3.60;;
24137;SDS011;17947;50.672;6.076;2022-07-23T11:36:58;4.07;;;3.67;;
24137;SDS011;17947;50.672;6.076;2022-07-23T11:39:26;4.90;;;3.67;;
24137;SDS011;17947;50.672;6.076;2022-07-23T11:41:52;4.00;;;3.55;;
24137;SDS011;17947;50.672;6.076;2022-07-23T11:49:23;3.53;;;3.20;;
24137;SDS011;17947;50.672;6.076;2022-07-23T11:52:02;4.65;;;3.60;;
24137;SDS011;17947;50.672;6.076;2022-07-23T11:54:31;4.47;;;4.07;;
24137;SDS011;17947;50.672;6.076;2022-07-23T11:56:58;4.20;;;3.53;;
24137;SDS011;17947;50.672;6.076;2022-07-23T11:59:24;3.88;;;3.47;;
24137;SDS011;17947;50.672;6.076;2022-07-23T12:01:58;3.85;;;3.47;;
24137;SDS011;17947;50.672;6.076;2022-07-23T12:04:25;5.85;;;4.00;;
24137;SDS011;17947;50.672;6.076;2022-07-23T12:06:51;3.72;;;3.42;;
24137;SDS011;17947;50.672;6.076;2022-07-23T12:09:17;4.97;;;4.03;;
24137;SDS011;17947;50.672;6.076;2022-07-23T12:11:59;4.32;;;3.50;;
24137;SDS011;17947;50.672;6.076;2022-07-23T12:14:25;4.60;;;3.70;;
24137;SDS011;17947;50.672;6.076;2022-07-23T12:17:07;3.88;;;3.53;;
24137;SDS011;17947;50.672;6.076;2022-07-23T12:19:33;3.72;;;3.35;;
24137;SDS011;17947;50.672;6.076;2022-07-23T12:21:59;3.78;;;3.47;;
24137;SDS011;17947;50.672;6.076;2022-07-23T12:24:25;4.93;;;3.50;;
24137;SDS011;17947;50.672;6.076;2022-07-23T12:27:10;3.65;;;3.35;;
24137;SDS011;17947;50.672;6.076;2022-07-23T12:29:37;3.35;;;3.05;;
24137;SDS011;17947;50.672;6.076;2022-07-23T12:32:16;3.92;;;3.53;;
24137;SDS011;17947;50.672;6.076;2022-07-23T12:34:42;3.58;;;3.28;;
24137;SDS011;17947;50.672;6.076;2022-07-23T12:37:08;3.50;;;3.17;;
24137;SDS011;17947;50.672;6.076;2022-07-23T12:39:34;3.58;;;3.28;;
24137;SDS011;17947;50.672;6.076;2022-07-23T12:42:00;3.53;;;3.22;;
24137;SDS011;17947;50.672;6.076;2022-07-23T12:44:26;3.83;;;3.42;;
24137;SDS011;17947;50.672;6.076;2022-07-23T12:46:52;4.55;;;3.85;;
24137;SDS011;17947;50.672;6.076;2022-07-23T12:49:25;3.67;;;3.28;;
24137;SDS011;17947;50.672;6.076;2022-07-23T12:51:51;3.75;;;3.35;;
24137;SDS011;17947;50.672;6.076;2022-07-23T12:54:17;3.60;;;3.30;;
24137;SDS011;17947;50.672;6.076;2022-07-23T12:56:44;4.57;;;3.30;;
24137;SDS011;17947;50.672;6.076;2022-07-23T12:59:11;3.70;;;3.40;;
24137;SDS011;17947;50.672;6.076;2022-07-23T13:01:41;4.55;;;3.40;;
24137;SDS011;17947;50.672;6.076;2022-07-23T13:09:04;3.85;;;3.13;;
24137;SDS011;17947;50.672;6.076;2022-07-23T13:11:30;3.65;;;3.33;;
24137;SDS011;17947;50.672;6.076;2022-07-23T13:13:57;3.20;;;2.90;;
24137;SDS011;17947;50.672;6.076;2022-07-23T13:16:25;3.85;;;3.55;;
24137;SDS011;17947;50.672;6.076;2022-07-23T13:18:51;3.70;;;3.40;;
24137;SDS011;17947;50.672;6.076;2022-07-23T13:21:17;4.03;;;3.35;;
24137;SDS011;17947;50.672;6.076;2022-07-23T13:23:43;3.35;;;3.05;;
24137;SDS011;17947;50.672;6.076;2022-07-23T13:26:09;3.65;;;3.22;;
24137;SDS011;17947;50.672;6.076;2022-07-23T13:28:36;3.85;;;3.45;;
24137;SDS011;17947;50.672;6.076;2022-07-23T13:31:02;3.63;;;3.33;;
24137;SDS011;17947;50.672;6.076;2022-07-23T13:33:28;3.47;;;3.17;;
24137;SDS011;17947;50.672;6.076;2022-07-23T13:35:54;3.40;;;3.10;;
24137;SDS011;17947;50.672;6.076;2022-07-23T13:38:20;3.20;;;2.90;;
24137;SDS011;17947;50.672;6.076;2022-07-23T13:40:48;3.80;;;3.20;;
24137;SDS011;17947;50.672;6.076;2022-07-23T13:43:15;3.53;;;3.22;;
24137;SDS011;17947;50.672;6.076;2022-07-23T13:45:42;3.72;;;3.33;;
24137;SDS011;17947;50.672;6.076;2022-07-23T13:48:09;3.90;;;3.50;;
24137;SDS011;17947;50.672;6.076;2022-07-23T13:50:35;3.30;;;3.00;;
24137;SDS011;17947;50.672;6.076;2022-07-23T13:53:06;3.88;;;3.55;;
24137;SDS011;17947;50.672;6.076;2022-07-23T13:55:34;3.38;;;3.08;;
24137;SDS011;17947;50.672;6.076;2022-07-23T13:58:00;3.53;;;3.20;;
24137;SDS011;17947;50.672;6.076;2022-07-23T14:00:26;4.72;;;3.63;;
24137;SDS011;17947;50.672;6.076;2022-07-23T14:02:53;3.90;;;3.30;;
24137;SDS011;17947;50.672;6.076;2022-07-23T14:05:19;3.33;;;3.03;;
24137;SDS011;17947;50.672;6.076;2022-07-23T14:07:45;3.70;;;3.00;;
24137;SDS011;17947;50.672;6.076;2022-07-23T14:10:14;3.88;;;3.20;;
24137;SDS011;17947;50.672;6.076;2022-07-23T14:12:40;3.00;;;2.70;;
24137;SDS011;17947;50.672;6.076;2022-07-23T14:15:06;3.50;;;3.10;;
24137;SDS011;17947;50.672;6.076;2022-07-23T14:17:34;3.58;;;3.28;;
24137;SDS011;17947;50.672;6.076;2022-07-23T14:20:00;3.40;;;3.10;;
24137;SDS011;17947;50.672;6.076;2022-07-23T14:22:26;3.67;;;3.38;;
24137;SDS011;17947;50.672;6.076;2022-07-23T14:24:52;3.38;;;3.08;;
24137;SDS011;17947;50.672;6.076;2022-07-23T14:27:18;4.35;;;3.30;;
24137;SDS011;17947;50.672;6.076;2022-07-23T14:29:44;3.60;;;3.30;;
24137;SDS011;17947;50.672;6.076;2022-07-23T14:32:10;3.55;;;3.20;;
24137;SDS011;17947;50.672;6.076;2022-07-23T14:34:36;4.38;;;2.95;;
24137;SDS011;17947;50.672;6.076;2022-07-23T14:37:02;3.25;;;2.95;;
24137;SDS011;17947;50.672;6.076;2022-07-23T14:39:28;3.47;;;3.17;;
24137;SDS011;17947;50.672;6.076;2022-07-23T14:41:54;3.55;;;3.20;;
24137;SDS011;17947;50.672;6.076;2022-07-23T14:44:20;3.42;;;3.03;;
24137;SDS011;17947;50.672;6.076;2022-07-23T14:46:46;3.83;;;3.33;;
24137;SDS011;17947;50.672;6.076;2022-07-23T14:49:12;4.00;;;3.58;;
24137;SDS011;17947;50.672;6.076;2022-07-23T14:51:38;4.05;;;3.42;;
24137;SDS011;17947;50.672;6.076;2022-07-23T14:54:07;3.42;;;3.13;;
24137;SDS011;17947;50.672;6.076;2022-07-23T14:56:33;3.72;;;2.90;;
24137;SDS011;17947;50.672;6.076;2022-07-23T14:59:01;3.63;;;3.33;;
24137;SDS011;17947;50.672;6.076;2022-07-23T15:01:27;3.50;;;3.20;;
24137;SDS011;17947;50.672;6.076;2022-07-23T15:03:53;4.65;;;3.22;;
24137;SDS011;17947;50.672;6.076;2022-07-23T15:06:19;4.43;;;3.28;;
24137;SDS011;17947;50.672;6.076;2022-07-23T15:08:45;3.80;;;3.30;;
24137;SDS011;17947;50.672;6.076;2022-07-23T15:11:11;3.55;;;3.25;;
24137;SDS011;17947;50.672;6.076;2022-07-23T15:13:37;3.78;;;3.30;;
24137;SDS011;17947;50.672;6.076;2022-07-23T15:16:04;3.30;;;3.00;;
24137;SDS011;17947;50.672;6.076;2022-07-23T15:18:30;4.82;;;3.50;;
24137;SDS011;17947;50.672;6.076;2022-07-23T15:20:56;5.00;;;3.30;;
24137;SDS011;17947;50.672;6.076;2022-07-23T15:23:22;3.47;;;3.17;;
24137;SDS011;17947;50.672;6.076;2022-07-23T15:25:48;3.58;;;3.28;;
24137;SDS011;17947;50.672;6.076;2022-07-23T15:28:15;3.55;;;3.10;;
24137;SDS011;17947;50.672;6.076;2022-07-23T15:30:41;4.50;;;3.10;;
24137;SDS011;17947;50.672;6.076;2022-07-23T15:33:07;3.92;;;3.33;;